sensor_id;sensor_type;location;lat;lon;timestamp;temperature;humidity
18781;DHT22;9519;51.890;8.970;2023-06-14T00:00:30;18.20;51.80
18781;DHT22;9519;51.890;8.970;2023-06-14T00:05:34;18.10;52.10
18781;DHT22;9519;51.890;8.970;2023-06-14T00:10:41;18.00;52.30
18781;DHT22;9519;51.890;8.970;2023-06-14T00:15:45;17.90;52.50
18781;DHT22;9519;51.890;8.970;2023-06-14T00:20:48;17.80;53.00
18781;DHT22;9519;51.890;8.970;2023-06-14T00:25:50;17.80;53.00
18781;DHT22;9519;51.890;8.970;2023-06-14T00:30:53;17.70;53.20
18781;DHT22;9519;51.890;8.970;2023-06-14T00:35:55;17.60;53.60
18781;DHT22;9519;51.890;8.970;2023-06-14T00:40:57;17.60;53.60
18781;DHT22;9519;51.890;8.970;2023-06-14T00:46:01;17.50;53.80
18781;DHT22;9519;51.890;8.970;2023-06-14T00:51:03;17.50;54.10
18781;DHT22;9519;51.890;8.970;2023-06-14T00:56:05;17.40;54.30
18781;DHT22;9519;51.890;8.970;2023-06-14T01:01:09;17.30;54.60
18781;DHT22;9519;51.890;8.970;2023-06-14T01:06:19;17.20;54.80
18781;DHT22;9519;51.890;8.970;2023-06-14T01:11:36;17.00;55.30
18781;DHT22;9519;51.890;8.970;2023-06-14T01:16:44;16.90;55.30
18781;DHT22;9519;51.890;8.970;2023-06-14T01:21:48;16.80;55.40
18781;DHT22;9519;51.890;8.970;2023-06-14T01:26:55;16.70;55.60
18781;DHT22;9519;51.890;8.970;2023-06-14T01:31:57;16.50;56.00
18781;DHT22;9519;51.890;8.970;2023-06-14T01:37:01;16.40;56.10
18781;DHT22;9519;51.890;8.970;2023-06-14T01:42:06;16.40;56.50
18781;DHT22;9519;51.890;8.970;2023-06-14T01:47:09;16.30;56.90
18781;DHT22;9519;51.890;8.970;2023-06-14T01:52:12;16.20;56.90
18781;DHT22;9519;51.890;8.970;2023-06-14T01:57:15;16.10;57.00
18781;DHT22;9519;51.890;8.970;2023-06-14T02:02:17;16.00;57.30
18781;DHT22;9519;51.890;8.970;2023-06-14T02:07:19;16.00;57.60
18781;DHT22;9519;51.890;8.970;2023-06-14T02:12:23;15.90;57.70
18781;DHT22;9519;51.890;8.970;2023-06-14T02:17:25;15.80;58.00
18781;DHT22;9519;51.890;8.970;2023-06-14T02:22:27;15.70;58.20
18781;DHT22;9519;51.890;8.970;2023-06-14T02:27:32;15.70;58.40
18781;DHT22;9519;51.890;8.970;2023-06-14T02:32:34;15.60;58.60
18781;DHT22;9519;51.890;8.970;2023-06-14T02:37:36;15.50;58.60
18781;DHT22;9519;51.890;8.970;2023-06-14T02:42:39;15.40;58.80
18781;DHT22;9519;51.890;8.970;2023-06-14T02:47:41;15.30;59.20
18781;DHT22;9519;51.890;8.970;2023-06-14T02:52:43;15.20;59.50
18781;DHT22;9519;51.890;8.970;2023-06-14T02:57:47;15.10;59.60
18781;DHT22;9519;51.890;8.970;2023-06-14T03:02:50;15.00;60.00
18781;DHT22;9519;51.890;8.970;2023-06-14T03:07:52;14.90;60.10
18781;DHT22;9519;51.890;8.970;2023-06-14T03:12:57;14.90;60.20
18781;DHT22;9519;51.890;8.970;2023-06-14T03:17:59;14.80;60.50
18781;DHT22;9519;51.890;8.970;2023-06-14T03:23:02;14.80;60.90
18781;DHT22;9519;51.890;8.970;2023-06-14T03:28:06;14.70;61.10
18781;DHT22;9519;51.890;8.970;2023-06-14T03:33:09;14.70;62.10
18781;DHT22;9519;51.890;8.970;2023-06-14T03:38:11;14.70;61.60
18781;DHT22;9519;51.890;8.970;2023-06-14T03:43:14;14.70;61.80
18781;DHT22;9519;51.890;8.970;2023-06-14T03:48:16;14.70;62.10
18781;DHT22;9519;51.890;8.970;2023-06-14T03:53:18;14.80;62.20
18781;DHT22;9519;51.890;8.970;2023-06-14T03:58:22;14.80;62.40
18781;DHT22;9519;51.890;8.970;2023-06-14T04:03:24;14.90;62.90
18781;DHT22;9519;51.890;8.970;2023-06-14T04:08:30;14.90;62.90
18781;DHT22;9519;51.890;8.970;2023-06-14T04:13:33;15.00;63.10
18781;DHT22;9519;51.890;8.970;2023-06-14T04:18:36;15.10;63.40
18781;DHT22;9519;51.890;8.970;2023-06-14T04:23:38;15.10;63.40
18781;DHT22;9519;51.890;8.970;2023-06-14T04:28:45;15.20;63.70
18781;DHT22;9519;51.890;8.970;2023-06-14T04:33:47;15.20;63.90
18781;DHT22;9519;51.890;8.970;2023-06-14T04:38:51;15.30;63.80
18781;DHT22;9519;51.890;8.970;2023-06-14T04:43:56;15.30;64.00
18781;DHT22;9519;51.890;8.970;2023-06-14T04:48:59;15.40;64.50
18781;DHT22;9519;51.890;8.970;2023-06-14T04:54:03;15.40;64.50
18781;DHT22;9519;51.890;8.970;2023-06-14T04:59:06;15.50;64.70
18781;DHT22;9519;51.890;8.970;2023-06-14T05:04:09;15.60;64.90
18781;DHT22;9519;51.890;8.970;2023-06-14T05:09:12;15.60;65.00
18781;DHT22;9519;51.890;8.970;2023-06-14T05:14:16;15.70;65.20
18781;DHT22;9519;51.890;8.970;2023-06-14T05:19:19;15.80;65.50
18781;DHT22;9519;51.890;8.970;2023-06-14T05:24:21;15.80;65.50
18781;DHT22;9519;51.890;8.970;2023-06-14T05:29:24;15.90;65.50
18781;DHT22;9519;51.890;8.970;2023-06-14T05:34:26;16.00;65.60
18781;DHT22;9519;51.890;8.970;2023-06-14T05:39:28;16.00;65.60
18781;DHT22;9519;51.890;8.970;2023-06-14T05:44:32;16.10;65.50
18781;DHT22;9519;51.890;8.970;2023-06-14T05:49:34;16.10;65.70
18781;DHT22;9519;51.890;8.970;2023-06-14T05:54:36;16.10;65.60
18781;DHT22;9519;51.890;8.970;2023-06-14T05:59:39;16.20;66.00
18781;DHT22;9519;51.890;8.970;2023-06-14T06:04:41;16.30;66.10
18781;DHT22;9519;51.890;8.970;2023-06-14T06:09:44;16.30;66.30
18781;DHT22;9519;51.890;8.970;2023-06-14T06:14:47;16.40;66.40
18781;DHT22;9519;51.890;8.970;2023-06-14T06:19:49;16.50;66.80
18781;DHT22;9519;51.890;8.970;2023-06-14T06:24:51;16.60;66.90
18781;DHT22;9519;51.890;8.970;2023-06-14T06:29:55;16.70;66.60
18781;DHT22;9519;51.890;8.970;2023-06-14T06:34:57;16.70;66.70
18781;DHT22;9519;51.890;8.970;2023-06-14T06:40:00;16.80;66.40
18781;DHT22;9519;51.890;8.970;2023-06-14T06:45:05;16.90;66.40
18781;DHT22;9519;51.890;8.970;2023-06-14T06:50:08;17.00;66.40
18781;DHT22;9519;51.890;8.970;2023-06-14T06:55:10;17.20;66.20
18781;DHT22;9519;51.890;8.970;2023-06-14T07:00:15;17.30;66.10
18781;DHT22;9519;51.890;8.970;2023-06-14T07:05:18;17.50;65.50
18781;DHT22;9519;51.890;8.970;2023-06-14T07:10:20;17.60;65.50
18781;DHT22;9519;51.890;8.970;2023-06-14T07:15:23;17.70;65.20
18781;DHT22;9519;51.890;8.970;2023-06-14T07:20:26;17.90;64.80
18781;DHT22;9519;51.890;8.970;2023-06-14T07:25:28;18.00;64.50
18781;DHT22;9519;51.890;8.970;2023-06-14T07:30:32;18.10;64.30
18781;DHT22;9519;51.890;8.970;2023-06-14T07:35:34;18.30;64.00
18781;DHT22;9519;51.890;8.970;2023-06-14T07:40:36;18.40;63.80
18781;DHT22;9519;51.890;8.970;2023-06-14T07:45:40;18.60;63.50
18781;DHT22;9519;51.890;8.970;2023-06-14T07:50:42;18.70;63.40
18781;DHT22;9519;51.890;8.970;2023-06-14T07:55:44;18.80;63.30
18781;DHT22;9519;51.890;8.970;2023-06-14T08:00:49;19.00;63.20
18781;DHT22;9519;51.890;8.970;2023-06-14T08:05:52;19.10;62.60
18781;DHT22;9519;51.890;8.970;2023-06-14T08:10:54;19.20;62.70
18781;DHT22;9519;51.890;8.970;2023-06-14T08:15:57;19.30;62.80
18781;DHT22;9519;51.890;8.970;2023-06-14T08:21:01;19.50;62.30
18781;DHT22;9519;51.890;8.970;2023-06-14T08:26:04;19.60;62.70
18781;DHT22;9519;51.890;8.970;2023-06-14T08:31:08;19.70;61.70
18781;DHT22;9519;51.890;8.970;2023-06-14T08:36:11;19.70;61.60
18781;DHT22;9519;51.890;8.970;2023-06-14T08:41:20;19.80;61.40
18781;DHT22;9519;51.890;8.970;2023-06-14T08:46:26;20.00;61.40
18781;DHT22;9519;51.890;8.970;2023-06-14T08:51:31;20.20;61.20
18781;DHT22;9519;51.890;8.970;2023-06-14T08:56:37;20.40;60.80
18781;DHT22;9519;51.890;8.970;2023-06-14T09:01:43;20.60;60.50
18781;DHT22;9519;51.890;8.970;2023-06-14T09:06:48;20.80;60.00
18781;DHT22;9519;51.890;8.970;2023-06-14T09:11:53;20.90;59.90
18781;DHT22;9519;51.890;8.970;2023-06-14T09:16:56;21.00;59.30
18781;DHT22;9519;51.890;8.970;2023-06-14T09:21:59;21.10;60.50
18781;DHT22;9519;51.890;8.970;2023-06-14T09:27:01;21.20;59.50
18781;DHT22;9519;51.890;8.970;2023-06-14T09:32:06;21.30;59.00
18781;DHT22;9519;51.890;8.970;2023-06-14T09:37:09;21.40;58.90
18781;DHT22;9519;51.890;8.970;2023-06-14T09:42:16;21.50;58.90
18781;DHT22;9519;51.890;8.970;2023-06-14T09:47:21;21.60;58.50
18781;DHT22;9519;51.890;8.970;2023-06-14T09:52:24;21.80;58.50
18781;DHT22;9519;51.890;8.970;2023-06-14T09:57:29;21.90;58.10
18781;DHT22;9519;51.890;8.970;2023-06-14T10:02:36;22.00;58.40
18781;DHT22;9519;51.890;8.970;2023-06-14T10:07:42;22.00;58.00
18781;DHT22;9519;51.890;8.970;2023-06-14T10:12:46;22.00;57.90
18781;DHT22;9519;51.890;8.970;2023-06-14T10:17:52;22.20;58.20
18781;DHT22;9519;51.890;8.970;2023-06-14T10:23:04;22.20;57.60
18781;DHT22;9519;51.890;8.970;2023-06-14T10:28:16;22.20;57.30
18781;DHT22;9519;51.890;8.970;2023-06-14T10:33:21;22.30;56.80
18781;DHT22;9519;51.890;8.970;2023-06-14T10:38:30;22.20;57.00
18781;DHT22;9519;51.890;8.970;2023-06-14T10:43:33;22.20;56.70
18781;DHT22;9519;51.890;8.970;2023-06-14T10:48:40;22.30;57.30
18781;DHT22;9519;51.890;8.970;2023-06-14T10:53:44;22.30;57.00
18781;DHT22;9519;51.890;8.970;2023-06-14T10:58:47;22.50;56.60
18781;DHT22;9519;51.890;8.970;2023-06-14T11:03:52;22.50;56.60
18781;DHT22;9519;51.890;8.970;2023-06-14T11:14:47;22.30;56.80
18781;DHT22;9519;51.890;8.970;2023-06-14T11:19:50;22.40;55.60
18781;DHT22;9519;51.890;8.970;2023-06-14T11:25:09;22.30;55.70
18781;DHT22;9519;51.890;8.970;2023-06-14T11:30:14;22.20;56.10
18781;DHT22;9519;51.890;8.970;2023-06-14T11:35:18;22.30;56.10
18781;DHT22;9519;51.890;8.970;2023-06-14T11:40:23;22.30;56.20
18781;DHT22;9519;51.890;8.970;2023-06-14T11:45:27;22.30;56.00
18781;DHT22;9519;51.890;8.970;2023-06-14T11:50:32;22.40;56.40
18781;DHT22;9519;51.890;8.970;2023-06-14T11:55:39;22.40;56.20
18781;DHT22;9519;51.890;8.970;2023-06-14T12:00:44;22.40;57.00
18781;DHT22;9519;51.890;8.970;2023-06-14T12:06:02;22.50;56.70
18781;DHT22;9519;51.890;8.970;2023-06-14T12:11:06;22.70;55.80
18781;DHT22;9519;51.890;8.970;2023-06-14T12:16:10;22.80;56.50
18781;DHT22;9519;51.890;8.970;2023-06-14T12:21:14;22.80;56.00
18781;DHT22;9519;51.890;8.970;2023-06-14T12:26:19;23.00;55.60
18781;DHT22;9519;51.890;8.970;2023-06-14T12:31:22;23.10;55.60
18781;DHT22;9519;51.890;8.970;2023-06-14T12:36:26;23.30;55.70
18781;DHT22;9519;51.890;8.970;2023-06-14T12:41:29;23.50;55.60
18781;DHT22;9519;51.890;8.970;2023-06-14T12:46:31;23.70;54.80
18781;DHT22;9519;51.890;8.970;2023-06-14T12:51:35;23.80;54.20
18781;DHT22;9519;51.890;8.970;2023-06-14T12:56:37;23.80;54.70
18781;DHT22;9519;51.890;8.970;2023-06-14T13:01:39;23.90;54.70
18781;DHT22;9519;51.890;8.970;2023-06-14T13:06:43;24.20;54.50
18781;DHT22;9519;51.890;8.970;2023-06-14T13:11:45;24.30;53.50
18781;DHT22;9519;51.890;8.970;2023-06-14T13:16:47;24.50;53.50
18781;DHT22;9519;51.890;8.970;2023-06-14T13:21:52;24.50;53.10
18781;DHT22;9519;51.890;8.970;2023-06-14T13:26:54;24.50;53.80
18781;DHT22;9519;51.890;8.970;2023-06-14T13:31:56;24.60;53.60
18781;DHT22;9519;51.890;8.970;2023-06-14T13:37:00;24.70;52.90
18781;DHT22;9519;51.890;8.970;2023-06-14T13:42:03;24.70;52.50
18781;DHT22;9519;51.890;8.970;2023-06-14T13:47:06;24.70;52.60
18781;DHT22;9519;51.890;8.970;2023-06-14T13:52:09;24.70;52.60
18781;DHT22;9519;51.890;8.970;2023-06-14T13:57:12;24.60;52.40
18781;DHT22;9519;51.890;8.970;2023-06-14T14:02:14;24.50;53.00
18781;DHT22;9519;51.890;8.970;2023-06-14T14:07:22;24.80;52.70
18781;DHT22;9519;51.890;8.970;2023-06-14T14:12:28;25.10;52.50
18781;DHT22;9519;51.890;8.970;2023-06-14T14:17:33;25.30;52.10
18781;DHT22;9519;51.890;8.970;2023-06-14T14:22:36;25.50;52.10
18781;DHT22;9519;51.890;8.970;2023-06-14T14:27:38;25.50;51.50
18781;DHT22;9519;51.890;8.970;2023-06-14T14:32:40;25.60;51.50
18781;DHT22;9519;51.890;8.970;2023-06-14T14:37:45;25.90;51.60
18781;DHT22;9519;51.890;8.970;2023-06-14T14:42:47;26.20;51.50
18781;DHT22;9519;51.890;8.970;2023-06-14T14:47:49;26.40;51.60
18781;DHT22;9519;51.890;8.970;2023-06-14T14:52:52;26.30;50.30
18781;DHT22;9519;51.890;8.970;2023-06-14T14:57:55;26.10;50.90
18781;DHT22;9519;51.890;8.970;2023-06-14T15:02:57;26.60;50.70
18781;DHT22;9519;51.890;8.970;2023-06-14T15:08:00;27.10;50.70
18781;DHT22;9519;51.890;8.970;2023-06-14T15:13:02;27.20;49.60
18781;DHT22;9519;51.890;8.970;2023-06-14T15:18:04;27.30;49.90
18781;DHT22;9519;51.890;8.970;2023-06-14T15:23:08;27.50;49.80
18781;DHT22;9519;51.890;8.970;2023-06-14T15:28:10;27.60;48.70
18781;DHT22;9519;51.890;8.970;2023-06-14T15:33:12;27.10;48.60
18781;DHT22;9519;51.890;8.970;2023-06-14T15:38:15;26.60;48.90
18781;DHT22;9519;51.890;8.970;2023-06-14T15:43:17;26.60;50.00
18781;DHT22;9519;51.890;8.970;2023-06-14T15:48:20;27.20;49.90
18781;DHT22;9519;51.890;8.970;2023-06-14T15:53:24;27.90;48.50
18781;DHT22;9519;51.890;8.970;2023-06-14T15:58:26;28.20;47.80
18781;DHT22;9519;51.890;8.970;2023-06-14T16:03:28;28.70;47.80
18781;DHT22;9519;51.890;8.970;2023-06-14T16:08:31;29.10;47.70
18781;DHT22;9519;51.890;8.970;2023-06-14T16:13:33;29.60;46.70
18781;DHT22;9519;51.890;8.970;2023-06-14T16:18:35;29.50;45.70
18781;DHT22;9519;51.890;8.970;2023-06-14T16:23:39;29.40;46.20
18781;DHT22;9519;51.890;8.970;2023-06-14T16:28:41;29.70;46.10
18781;DHT22;9519;51.890;8.970;2023-06-14T16:33:43;30.30;46.10
18781;DHT22;9519;51.890;8.970;2023-06-14T16:38:47;30.80;45.90
18781;DHT22;9519;51.890;8.970;2023-06-14T16:43:49;30.90;44.70
18781;DHT22;9519;51.890;8.970;2023-06-14T16:48:51;30.40;43.70
18781;DHT22;9519;51.890;8.970;2023-06-14T16:53:54;29.50;45.10
18781;DHT22;9519;51.890;8.970;2023-06-14T16:58:57;28.70;45.20
18781;DHT22;9519;51.890;8.970;2023-06-14T17:04:00;27.90;45.60
18781;DHT22;9519;51.890;8.970;2023-06-14T17:09:03;27.20;46.50
18781;DHT22;9519;51.890;8.970;2023-06-14T17:14:06;26.70;46.90
18781;DHT22;9519;51.890;8.970;2023-06-14T17:19:09;26.60;47.60
18781;DHT22;9519;51.890;8.970;2023-06-14T17:24:13;26.70;47.20
18781;DHT22;9519;51.890;8.970;2023-06-14T17:29:15;26.90;47.20
18781;DHT22;9519;51.890;8.970;2023-06-14T17:34:17;27.20;46.90
18781;DHT22;9519;51.890;8.970;2023-06-14T17:39:21;27.40;47.00
18781;DHT22;9519;51.890;8.970;2023-06-14T17:44:23;27.70;47.10
18781;DHT22;9519;51.890;8.970;2023-06-14T17:49:25;28.00;46.90
18781;DHT22;9519;51.890;8.970;2023-06-14T17:54:29;28.00;45.90
18781;DHT22;9519;51.890;8.970;2023-06-14T17:59:31;27.70;45.90
18781;DHT22;9519;51.890;8.970;2023-06-14T18:04:33;27.40;46.10
18781;DHT22;9519;51.890;8.970;2023-06-14T18:09:37;27.00;45.90
18781;DHT22;9519;51.890;8.970;2023-06-14T18:14:39;26.50;46.50
18781;DHT22;9519;51.890;8.970;2023-06-14T18:19:41;26.20;47.00
18781;DHT22;9519;51.890;8.970;2023-06-14T18:24:46;26.00;47.30
18781;DHT22;9519;51.890;8.970;2023-06-14T18:29:48;25.80;47.60
18781;DHT22;9519;51.890;8.970;2023-06-14T18:34:50;25.60;47.90
18781;DHT22;9519;51.890;8.970;2023-06-14T18:39:54;25.50;48.10
18781;DHT22;9519;51.890;8.970;2023-06-14T18:44:56;25.30;48.10
18781;DHT22;9519;51.890;8.970;2023-06-14T18:49:58;25.00;48.30
18781;DHT22;9519;51.890;8.970;2023-06-14T18:55:02;24.70;48.70
18781;DHT22;9519;51.890;8.970;2023-06-14T19:00:05;24.50;49.30
18781;DHT22;9519;51.890;8.970;2023-06-14T19:05:09;24.30;49.50
18781;DHT22;9519;51.890;8.970;2023-06-14T19:10:12;24.10;49.80
18781;DHT22;9519;51.890;8.970;2023-06-14T19:15:14;23.90;50.10
18781;DHT22;9519;51.890;8.970;2023-06-14T19:20:17;23.70;50.30
18781;DHT22;9519;51.890;8.970;2023-06-14T19:25:20;23.50;50.80
18781;DHT22;9519;51.890;8.970;2023-06-14T19:30:22;23.30;51.30
18781;DHT22;9519;51.890;8.970;2023-06-14T19:35:24;23.00;51.70
18781;DHT22;9519;51.890;8.970;2023-06-14T19:40:28;22.70;52.10
18781;DHT22;9519;51.890;8.970;2023-06-14T19:45:30;22.40;52.80
18781;DHT22;9519;51.890;8.970;2023-06-14T19:50:32;22.10;53.20
18781;DHT22;9519;51.890;8.970;2023-06-14T19:55:36;21.90;53.50
18781;DHT22;9519;51.890;8.970;2023-06-14T20:00:39;21.70;53.80
18781;DHT22;9519;51.890;8.970;2023-06-14T20:05:41;21.50;54.20
18781;DHT22;9519;51.890;8.970;2023-06-14T20:10:44;21.30;54.50
18781;DHT22;9519;51.890;8.970;2023-06-14T20:15:47;21.10;55.00
18781;DHT22;9519;51.890;8.970;2023-06-14T20:20:49;21.00;55.30
18781;DHT22;9519;51.890;8.970;2023-06-14T20:25:53;20.80;55.70
18781;DHT22;9519;51.890;8.970;2023-06-14T20:30:55;20.60;56.10
18781;DHT22;9519;51.890;8.970;2023-06-14T20:35:57;20.50;56.50
18781;DHT22;9519;51.890;8.970;2023-06-14T20:41:03;20.30;56.90
18781;DHT22;9519;51.890;8.970;2023-06-14T20:46:05;20.10;57.40
18781;DHT22;9519;51.890;8.970;2023-06-14T20:51:08;19.90;57.60
18781;DHT22;9519;51.890;8.970;2023-06-14T20:56:12;19.80;57.80
18781;DHT22;9519;51.890;8.970;2023-06-14T21:01:15;19.70;58.30
18781;DHT22;9519;51.890;8.970;2023-06-14T21:06:18;19.50;58.40
18781;DHT22;9519;51.890;8.970;2023-06-14T21:11:21;19.40;58.70
18781;DHT22;9519;51.890;8.970;2023-06-14T21:16:23;19.30;59.20
18781;DHT22;9519;51.890;8.970;2023-06-14T21:21:25;19.10;59.30
18781;DHT22;9519;51.890;8.970;2023-06-14T21:26:29;19.10;59.50
18781;DHT22;9519;51.890;8.970;2023-06-14T21:31:31;18.90;59.90
18781;DHT22;9519;51.890;8.970;2023-06-14T21:36:33;18.80;60.20
18781;DHT22;9519;51.890;8.970;2023-06-14T21:41:37;18.70;61.20
18781;DHT22;9519;51.890;8.970;2023-06-14T21:46:39;18.50;61.50
18781;DHT22;9519;51.890;8.970;2023-06-14T21:51:41;18.30;61.80
18781;DHT22;9519;51.890;8.970;2023-06-14T21:56:44;18.20;62.20
18781;DHT22;9519;51.890;8.970;2023-06-14T22:01:47;18.10;62.50
18781;DHT22;9519;51.890;8.970;2023-06-14T22:06:49;18.00;62.70
18781;DHT22;9519;51.890;8.970;2023-06-14T22:11:52;17.90;63.00
18781;DHT22;9519;51.890;8.970;2023-06-14T22:16:56;17.80;64.30
18781;DHT22;9519;51.890;8.970;2023-06-14T22:21:59;17.70;63.70
18781;DHT22;9519;51.890;8.970;2023-06-14T22:27:04;17.60;64.10
18781;DHT22;9519;51.890;8.970;2023-06-14T22:32:09;17.50;64.40
18781;DHT22;9519;51.890;8.970;2023-06-14T22:37:11;17.40;64.70
18781;DHT22;9519;51.890;8.970;2023-06-14T22:42:16;17.30;64.90
18781;DHT22;9519;51.890;8.970;2023-06-14T22:47:20;17.20;65.00
18781;DHT22;9519;51.890;8.970;2023-06-14T22:52:24;17.10;65.20
18781;DHT22;9519;51.890;8.970;2023-06-14T22:57:29;17.00;65.30
18781;DHT22;9519;51.890;8.970;2023-06-14T23:02:31;17.00;65.80
18781;DHT22;9519;51.890;8.970;2023-06-14T23:07:33;16.90;65.90
18781;DHT22;9519;51.890;8.970;2023-06-14T23:12:38;16.90;66.10
18781;DHT22;9519;51.890;8.970;2023-06-14T23:17:41;16.80;66.40
18781;DHT22;9519;51.890;8.970;2023-06-14T23:22:43;16.70;66.40
18781;DHT22;9519;51.890;8.970;2023-06-14T23:27:47;16.60;66.70
18781;DHT22;9519;51.890;8.970;2023-06-14T23:32:49;16.60;66.90
18781;DHT22;9519;51.890;8.970;2023-06-14T23:37:51;16.50;67.00
18781;DHT22;9519;51.890;8.970;2023-06-14T23:42:55;16.30;67.40
18781;DHT22;9519;51.890;8.970;2023-06-14T23:48:06;16.20;67.80
18781;DHT22;9519;51.890;8.970;2023-06-14T23:53:08;16.10;68.00
18781;DHT22;9519;51.890;8.970;2023-06-14T23:58:12;15.90;68.30
